<?xml version="1.0" encoding="UTF-8" standalone="no" ?>
<gpx xmlns="http://www.topografix.com/GPX/1/1" xmlns:xsi="http://www.w3.org/2001/XMLSchema-instance" xsi:schemaLocation="http://www.topografix.com/GPX/1/1 http://www.topografix.com/GPX/1/1/gpx.xsd" version="1.1" creator="VisuGPX - https://www.visugpx.com">
  <metadata>
    <name>SERAINCOURT</name>
    <desc><![CDATA[fait]]></desc>
  </metadata>
  <trk>
    <name><![CDATA[SERAINCOURT-10882577]]></name>
    <trkseg>
      <trkpt lat="49.02237" lon="1.82857">
        <ele>120</ele>
        <time>2023-01-10T08:10:08Z</time>
      </trkpt>
      <trkpt lat="49.02234" lon="1.82844">
        <ele>120</ele>
        <time>2023-01-10T08:10:15Z</time>
      </trkpt>
      <trkpt lat="49.02237" lon="1.82848">
        <ele>120</ele>
        <time>2023-01-10T08:10:18Z</time>
      </trkpt>
      <trkpt lat="49.02172" lon="1.82846">
        <ele>122</ele>
        <time>2023-01-10T08:11:10Z</time>
      </trkpt>
      <trkpt lat="49.02131" lon="1.82837">
        <ele>123</ele>
        <time>2023-01-10T08:11:44Z</time>
      </trkpt>
      <trkpt lat="49.02008" lon="1.82759">
        <ele>133</ele>
        <time>2023-01-10T08:13:30Z</time>
      </trkpt>
      <trkpt lat="49.01972" lon="1.82752">
        <ele>135</ele>
        <time>2023-01-10T08:13:59Z</time>
      </trkpt>
      <trkpt lat="49.01934" lon="1.82734">
        <ele>137</ele>
        <time>2023-01-10T08:14:31Z</time>
      </trkpt>
      <trkpt lat="49.01909" lon="1.82707">
        <ele>140</ele>
        <time>2023-01-10T08:14:56Z</time>
      </trkpt>
      <trkpt lat="49.01899" lon="1.82666">
        <ele>143</ele>
        <time>2023-01-10T08:15:19Z</time>
      </trkpt>
      <trkpt lat="49.01836" lon="1.82596">
        <ele>147</ele>
        <time>2023-01-10T08:16:21Z</time>
      </trkpt>
      <trkpt lat="49.01833" lon="1.82577">
        <ele>148</ele>
        <time>2023-01-10T08:16:31Z</time>
      </trkpt>
      <trkpt lat="49.01843" lon="1.8254">
        <ele>149</ele>
        <time>2023-01-10T08:16:52Z</time>
      </trkpt>
      <trkpt lat="49.01796" lon="1.82654">
        <ele>151</ele>
        <time>2023-01-10T08:18:03Z</time>
      </trkpt>
      <trkpt lat="49.0172" lon="1.827">
        <ele>157</ele>
        <time>2023-01-10T08:19:09Z</time>
      </trkpt>
      <trkpt lat="49.01665" lon="1.82706">
        <ele>161</ele>
        <time>2023-01-10T08:19:53Z</time>
      </trkpt>
      <trkpt lat="49.01643" lon="1.8272">
        <ele>162</ele>
        <time>2023-01-10T08:20:12Z</time>
      </trkpt>
      <trkpt lat="49.01635" lon="1.82732">
        <ele>162</ele>
        <time>2023-01-10T08:20:21Z</time>
      </trkpt>
      <trkpt lat="49.01624" lon="1.82764">
        <ele>160</ele>
        <time>2023-01-10T08:20:40Z</time>
      </trkpt>
      <trkpt lat="49.01622" lon="1.82795">
        <ele>159</ele>
        <time>2023-01-10T08:20:56Z</time>
      </trkpt>
      <trkpt lat="49.01616" lon="1.82813">
        <ele>158</ele>
        <time>2023-01-10T08:21:07Z</time>
      </trkpt>
      <trkpt lat="49.01579" lon="1.82857">
        <ele>158</ele>
        <time>2023-01-10T08:21:44Z</time>
      </trkpt>
      <trkpt lat="49.01481" lon="1.82952">
        <ele>164</ele>
        <time>2023-01-10T08:23:17Z</time>
      </trkpt>
      <trkpt lat="49.01432" lon="1.82981">
        <ele>162</ele>
        <time>2023-01-10T08:23:59Z</time>
      </trkpt>
      <trkpt lat="49.01401" lon="1.83007">
        <ele>163</ele>
        <time>2023-01-10T08:24:28Z</time>
      </trkpt>
      <trkpt lat="49.01365" lon="1.83027">
        <ele>167</ele>
        <time>2023-01-10T08:24:58Z</time>
      </trkpt>
      <trkpt lat="49.01309" lon="1.83067">
        <ele>173</ele>
        <time>2023-01-10T08:25:48Z</time>
      </trkpt>
      <trkpt lat="49.01257" lon="1.83088">
        <ele>181</ele>
        <time>2023-01-10T08:26:31Z</time>
      </trkpt>
      <trkpt lat="49.0123" lon="1.83113">
        <ele>181</ele>
        <time>2023-01-10T08:26:56Z</time>
      </trkpt>
      <trkpt lat="49.01199" lon="1.83128">
        <ele>178</ele>
        <time>2023-01-10T08:27:22Z</time>
      </trkpt>
      <trkpt lat="49.01079" lon="1.83089">
        <ele>169</ele>
        <time>2023-01-10T08:29:01Z</time>
      </trkpt>
      <trkpt lat="49.01029" lon="1.83052">
        <ele>167</ele>
        <time>2023-01-10T08:29:45Z</time>
      </trkpt>
      <trkpt lat="49.01003" lon="1.83022">
        <ele>165</ele>
        <time>2023-01-10T08:30:11Z</time>
      </trkpt>
      <trkpt lat="49.00906" lon="1.82961">
        <ele>159</ele>
        <time>2023-01-10T08:31:35Z</time>
      </trkpt>
      <trkpt lat="49.00829" lon="1.82884">
        <ele>155</ele>
        <time>2023-01-10T08:32:49Z</time>
      </trkpt>
      <trkpt lat="49.00768" lon="1.82842">
        <ele>149</ele>
        <time>2023-01-10T08:33:42Z</time>
      </trkpt>
      <trkpt lat="49.00762" lon="1.82846">
        <ele>148</ele>
        <time>2023-01-10T08:33:48Z</time>
      </trkpt>
      <trkpt lat="49.00759" lon="1.8286">
        <ele>148</ele>
        <time>2023-01-10T08:33:55Z</time>
      </trkpt>
      <trkpt lat="49.00762" lon="1.82933">
        <ele>147</ele>
        <time>2023-01-10T08:34:34Z</time>
      </trkpt>
      <trkpt lat="49.00743" lon="1.83006">
        <ele>145</ele>
        <time>2023-01-10T08:35:15Z</time>
      </trkpt>
      <trkpt lat="49.00731" lon="1.83031">
        <ele>144</ele>
        <time>2023-01-10T08:35:31Z</time>
      </trkpt>
      <trkpt lat="49.00725" lon="1.83061">
        <ele>144</ele>
        <time>2023-01-10T08:35:48Z</time>
      </trkpt>
      <trkpt lat="49.00713" lon="1.83161">
        <ele>141</ele>
        <time>2023-01-10T08:36:41Z</time>
      </trkpt>
      <trkpt lat="49.00713" lon="1.83204">
        <ele>137</ele>
        <time>2023-01-10T08:37:04Z</time>
      </trkpt>
      <trkpt lat="49.00709" lon="1.83215">
        <ele>136</ele>
        <time>2023-01-10T08:37:10Z</time>
      </trkpt>
      <trkpt lat="49.00683" lon="1.83231">
        <ele>132</ele>
        <time>2023-01-10T08:37:33Z</time>
      </trkpt>
      <trkpt lat="49.00662" lon="1.83262">
        <ele>129</ele>
        <time>2023-01-10T08:37:56Z</time>
      </trkpt>
      <trkpt lat="49.00645" lon="1.83313">
        <ele>130</ele>
        <time>2023-01-10T08:38:26Z</time>
      </trkpt>
      <trkpt lat="49.00633" lon="1.83336">
        <ele>130</ele>
        <time>2023-01-10T08:38:42Z</time>
      </trkpt>
      <trkpt lat="49.00624" lon="1.83345">
        <ele>131</ele>
        <time>2023-01-10T08:38:50Z</time>
      </trkpt>
      <trkpt lat="49.00617" lon="1.83343">
        <ele>130</ele>
        <time>2023-01-10T08:38:56Z</time>
      </trkpt>
      <trkpt lat="49.00632" lon="1.83318">
        <ele>129</ele>
        <time>2023-01-10T08:39:14Z</time>
      </trkpt>
      <trkpt lat="49.00634" lon="1.83299">
        <ele>128</ele>
        <time>2023-01-10T08:39:24Z</time>
      </trkpt>
      <trkpt lat="49.00584" lon="1.83188">
        <ele>123</ele>
        <time>2023-01-10T08:40:35Z</time>
      </trkpt>
      <trkpt lat="49.00574" lon="1.83173">
        <ele>122</ele>
        <time>2023-01-10T08:40:46Z</time>
      </trkpt>
      <trkpt lat="49.00549" lon="1.83197">
        <ele>121</ele>
        <time>2023-01-10T08:41:10Z</time>
      </trkpt>
      <trkpt lat="49.00538" lon="1.83198">
        <ele>121</ele>
        <time>2023-01-10T08:41:18Z</time>
      </trkpt>
      <trkpt lat="49.00478" lon="1.83149">
        <ele>116</ele>
        <time>2023-01-10T08:42:13Z</time>
      </trkpt>
      <trkpt lat="49.00454" lon="1.83141">
        <ele>115</ele>
        <time>2023-01-10T08:42:33Z</time>
      </trkpt>
      <trkpt lat="49.00375" lon="1.83094">
        <ele>110</ele>
        <time>2023-01-10T08:43:41Z</time>
      </trkpt>
      <trkpt lat="49.00333" lon="1.83047">
        <ele>109</ele>
        <time>2023-01-10T08:44:22Z</time>
      </trkpt>
      <trkpt lat="49.0031" lon="1.83093">
        <ele>109</ele>
        <time>2023-01-10T08:44:53Z</time>
      </trkpt>
      <trkpt lat="49.00293" lon="1.83111">
        <ele>110</ele>
        <time>2023-01-10T08:45:09Z</time>
      </trkpt>
      <trkpt lat="49.00283" lon="1.8313">
        <ele>110</ele>
        <time>2023-01-10T08:45:22Z</time>
      </trkpt>
      <trkpt lat="49.00256" lon="1.83227">
        <ele>114</ele>
        <time>2023-01-10T08:46:17Z</time>
      </trkpt>
      <trkpt lat="49.00243" lon="1.83297">
        <ele>117</ele>
        <time>2023-01-10T08:46:56Z</time>
      </trkpt>
      <trkpt lat="49.00225" lon="1.83366">
        <ele>120</ele>
        <time>2023-01-10T08:47:35Z</time>
      </trkpt>
      <trkpt lat="49.00211" lon="1.83461">
        <ele>123</ele>
        <time>2023-01-10T08:48:26Z</time>
      </trkpt>
      <trkpt lat="49.00201" lon="1.83481">
        <ele>123</ele>
        <time>2023-01-10T08:48:39Z</time>
      </trkpt>
      <trkpt lat="49.00179" lon="1.83497">
        <ele>123</ele>
        <time>2023-01-10T08:48:58Z</time>
      </trkpt>
      <trkpt lat="49.00115" lon="1.83522">
        <ele>122</ele>
        <time>2023-01-10T08:49:51Z</time>
      </trkpt>
      <trkpt lat="49.00061" lon="1.83559">
        <ele>121</ele>
        <time>2023-01-10T08:50:39Z</time>
      </trkpt>
      <trkpt lat="48.99994" lon="1.83626">
        <ele>119</ele>
        <time>2023-01-10T08:51:43Z</time>
      </trkpt>
      <trkpt lat="48.99889" lon="1.8359">
        <ele>114</ele>
        <time>2023-01-10T08:53:09Z</time>
      </trkpt>
      <trkpt lat="48.99787" lon="1.83573">
        <ele>109</ele>
        <time>2023-01-10T08:54:31Z</time>
      </trkpt>
      <trkpt lat="48.99692" lon="1.83555">
        <ele>106</ele>
        <time>2023-01-10T08:55:48Z</time>
      </trkpt>
      <trkpt lat="48.99664" lon="1.83688">
        <ele>105</ele>
        <time>2023-01-10T08:57:01Z</time>
      </trkpt>
      <trkpt lat="48.99658" lon="1.83749">
        <ele>106</ele>
        <time>2023-01-10T08:57:34Z</time>
      </trkpt>
      <trkpt lat="48.99647" lon="1.83838">
        <ele>109</ele>
        <time>2023-01-10T08:58:21Z</time>
      </trkpt>
      <trkpt lat="48.99616" lon="1.83954">
        <ele>107</ele>
        <time>2023-01-10T08:59:27Z</time>
      </trkpt>
      <trkpt lat="48.99615" lon="1.84027">
        <ele>106</ele>
        <time>2023-01-10T09:00:05Z</time>
      </trkpt>
      <trkpt lat="48.99644" lon="1.84129">
        <ele>106</ele>
        <time>2023-01-10T09:01:04Z</time>
      </trkpt>
      <trkpt lat="48.99583" lon="1.84217">
        <ele>103</ele>
        <time>2023-01-10T09:02:11Z</time>
      </trkpt>
      <trkpt lat="48.99535" lon="1.84238">
        <ele>100</ele>
        <time>2023-01-10T09:02:51Z</time>
      </trkpt>
      <trkpt lat="48.99485" lon="1.84257">
        <ele>96</ele>
        <time>2023-01-10T09:03:32Z</time>
      </trkpt>
      <trkpt lat="48.99428" lon="1.84316">
        <ele>89</ele>
        <time>2023-01-10T09:04:27Z</time>
      </trkpt>
      <trkpt lat="48.99407" lon="1.84353">
        <ele>85</ele>
        <time>2023-01-10T09:04:53Z</time>
      </trkpt>
      <trkpt lat="48.9941" lon="1.84375">
        <ele>84</ele>
        <time>2023-01-10T09:05:05Z</time>
      </trkpt>
      <trkpt lat="48.994" lon="1.84379">
        <ele>82</ele>
        <time>2023-01-10T09:05:13Z</time>
      </trkpt>
      <trkpt lat="48.99371" lon="1.84478">
        <ele>70</ele>
        <time>2023-01-10T09:06:10Z</time>
      </trkpt>
      <trkpt lat="48.9936" lon="1.84519">
        <ele>65</ele>
        <time>2023-01-10T09:06:33Z</time>
      </trkpt>
      <trkpt lat="48.99364" lon="1.84561">
        <ele>62</ele>
        <time>2023-01-10T09:06:56Z</time>
      </trkpt>
      <trkpt lat="48.99339" lon="1.8457">
        <ele>59</ele>
        <time>2023-01-10T09:07:16Z</time>
      </trkpt>
      <trkpt lat="48.99308" lon="1.84605">
        <ele>55</ele>
        <time>2023-01-10T09:07:47Z</time>
      </trkpt>
      <trkpt lat="48.99258" lon="1.84687">
        <ele>50</ele>
        <time>2023-01-10T09:08:46Z</time>
      </trkpt>
      <trkpt lat="48.99252" lon="1.84685">
        <ele>50</ele>
        <time>2023-01-10T09:08:51Z</time>
      </trkpt>
      <trkpt lat="48.99242" lon="1.84644">
        <ele>50</ele>
        <time>2023-01-10T09:09:14Z</time>
      </trkpt>
      <trkpt lat="48.99248" lon="1.84585">
        <ele>52</ele>
        <time>2023-01-10T09:09:45Z</time>
      </trkpt>
      <trkpt lat="48.99247" lon="1.8447">
        <ele>55</ele>
        <time>2023-01-10T09:10:46Z</time>
      </trkpt>
      <trkpt lat="48.99248" lon="1.84585">
        <ele>52</ele>
        <time>2023-01-10T09:11:46Z</time>
      </trkpt>
      <trkpt lat="48.99242" lon="1.84644">
        <ele>50</ele>
        <time>2023-01-10T09:12:18Z</time>
      </trkpt>
      <trkpt lat="48.99252" lon="1.84685">
        <ele>50</ele>
        <time>2023-01-10T09:12:40Z</time>
      </trkpt>
      <trkpt lat="48.99258" lon="1.84687">
        <ele>50</ele>
        <time>2023-01-10T09:12:45Z</time>
      </trkpt>
      <trkpt lat="48.99308" lon="1.84605">
        <ele>55</ele>
        <time>2023-01-10T09:13:44Z</time>
      </trkpt>
      <trkpt lat="48.99339" lon="1.8457">
        <ele>59</ele>
        <time>2023-01-10T09:14:15Z</time>
      </trkpt>
      <trkpt lat="48.99364" lon="1.84561">
        <ele>62</ele>
        <time>2023-01-10T09:14:36Z</time>
      </trkpt>
      <trkpt lat="48.9936" lon="1.84519">
        <ele>65</ele>
        <time>2023-01-10T09:14:58Z</time>
      </trkpt>
      <trkpt lat="48.99371" lon="1.84478">
        <ele>70</ele>
        <time>2023-01-10T09:15:21Z</time>
      </trkpt>
      <trkpt lat="48.994" lon="1.84379">
        <ele>82</ele>
        <time>2023-01-10T09:16:18Z</time>
      </trkpt>
      <trkpt lat="48.9941" lon="1.84375">
        <ele>84</ele>
        <time>2023-01-10T09:16:26Z</time>
      </trkpt>
      <trkpt lat="48.99407" lon="1.84353">
        <ele>85</ele>
        <time>2023-01-10T09:16:38Z</time>
      </trkpt>
      <trkpt lat="48.99428" lon="1.84316">
        <ele>89</ele>
        <time>2023-01-10T09:17:04Z</time>
      </trkpt>
      <trkpt lat="48.99485" lon="1.84257">
        <ele>96</ele>
        <time>2023-01-10T09:17:59Z</time>
      </trkpt>
      <trkpt lat="48.99535" lon="1.84238">
        <ele>100</ele>
        <time>2023-01-10T09:18:40Z</time>
      </trkpt>
      <trkpt lat="48.99583" lon="1.84217">
        <ele>103</ele>
        <time>2023-01-10T09:19:20Z</time>
      </trkpt>
      <trkpt lat="48.99644" lon="1.84129">
        <ele>106</ele>
        <time>2023-01-10T09:20:28Z</time>
      </trkpt>
      <trkpt lat="48.99615" lon="1.84027">
        <ele>106</ele>
        <time>2023-01-10T09:21:26Z</time>
      </trkpt>
      <trkpt lat="48.99616" lon="1.83954">
        <ele>107</ele>
        <time>2023-01-10T09:22:04Z</time>
      </trkpt>
      <trkpt lat="48.99647" lon="1.83838">
        <ele>109</ele>
        <time>2023-01-10T09:23:10Z</time>
      </trkpt>
      <trkpt lat="48.99658" lon="1.83749">
        <ele>106</ele>
        <time>2023-01-10T09:23:58Z</time>
      </trkpt>
      <trkpt lat="48.99664" lon="1.83688">
        <ele>105</ele>
        <time>2023-01-10T09:24:30Z</time>
      </trkpt>
      <trkpt lat="48.99692" lon="1.83555">
        <ele>106</ele>
        <time>2023-01-10T09:25:44Z</time>
      </trkpt>
      <trkpt lat="48.99787" lon="1.83573">
        <ele>109</ele>
        <time>2023-01-10T09:27:00Z</time>
      </trkpt>
      <trkpt lat="48.99889" lon="1.8359">
        <ele>114</ele>
        <time>2023-01-10T09:28:22Z</time>
      </trkpt>
      <trkpt lat="48.99994" lon="1.83626">
        <ele>119</ele>
        <time>2023-01-10T09:29:49Z</time>
      </trkpt>
      <trkpt lat="49.00061" lon="1.83559">
        <ele>121</ele>
        <time>2023-01-10T09:30:53Z</time>
      </trkpt>
      <trkpt lat="49.00115" lon="1.83522">
        <ele>122</ele>
        <time>2023-01-10T09:31:40Z</time>
      </trkpt>
      <trkpt lat="49.00179" lon="1.83497">
        <ele>123</ele>
        <time>2023-01-10T09:32:33Z</time>
      </trkpt>
      <trkpt lat="49.00201" lon="1.83481">
        <ele>123</ele>
        <time>2023-01-10T09:32:53Z</time>
      </trkpt>
      <trkpt lat="49.00211" lon="1.83461">
        <ele>123</ele>
        <time>2023-01-10T09:33:06Z</time>
      </trkpt>
      <trkpt lat="49.00225" lon="1.83366">
        <ele>120</ele>
        <time>2023-01-10T09:33:57Z</time>
      </trkpt>
      <trkpt lat="49.00243" lon="1.83297">
        <ele>117</ele>
        <time>2023-01-10T09:34:36Z</time>
      </trkpt>
      <trkpt lat="49.00256" lon="1.83227">
        <ele>114</ele>
        <time>2023-01-10T09:35:14Z</time>
      </trkpt>
      <trkpt lat="49.00283" lon="1.8313">
        <ele>110</ele>
        <time>2023-01-10T09:36:09Z</time>
      </trkpt>
      <trkpt lat="49.00293" lon="1.83111">
        <ele>110</ele>
        <time>2023-01-10T09:36:22Z</time>
      </trkpt>
      <trkpt lat="49.0031" lon="1.83093">
        <ele>109</ele>
        <time>2023-01-10T09:36:39Z</time>
      </trkpt>
      <trkpt lat="49.00333" lon="1.83047">
        <ele>109</ele>
        <time>2023-01-10T09:37:09Z</time>
      </trkpt>
      <trkpt lat="49.00375" lon="1.83094">
        <ele>110</ele>
        <time>2023-01-10T09:37:51Z</time>
      </trkpt>
      <trkpt lat="49.00454" lon="1.83141">
        <ele>115</ele>
        <time>2023-01-10T09:38:59Z</time>
      </trkpt>
      <trkpt lat="49.00478" lon="1.83149">
        <ele>116</ele>
        <time>2023-01-10T09:39:18Z</time>
      </trkpt>
      <trkpt lat="49.00538" lon="1.83198">
        <ele>121</ele>
        <time>2023-01-10T09:40:13Z</time>
      </trkpt>
      <trkpt lat="49.00549" lon="1.83197">
        <ele>121</ele>
        <time>2023-01-10T09:40:22Z</time>
      </trkpt>
      <trkpt lat="49.00574" lon="1.83173">
        <ele>122</ele>
        <time>2023-01-10T09:40:45Z</time>
      </trkpt>
      <trkpt lat="49.00584" lon="1.83188">
        <ele>123</ele>
        <time>2023-01-10T09:40:57Z</time>
      </trkpt>
      <trkpt lat="49.00634" lon="1.83299">
        <ele>128</ele>
        <time>2023-01-10T09:42:07Z</time>
      </trkpt>
      <trkpt lat="49.00632" lon="1.83318">
        <ele>129</ele>
        <time>2023-01-10T09:42:18Z</time>
      </trkpt>
      <trkpt lat="49.00617" lon="1.83343">
        <ele>130</ele>
        <time>2023-01-10T09:42:35Z</time>
      </trkpt>
      <trkpt lat="49.00624" lon="1.83345">
        <ele>131</ele>
        <time>2023-01-10T09:42:41Z</time>
      </trkpt>
      <trkpt lat="49.00633" lon="1.83336">
        <ele>130</ele>
        <time>2023-01-10T09:42:50Z</time>
      </trkpt>
      <trkpt lat="49.00645" lon="1.83313">
        <ele>130</ele>
        <time>2023-01-10T09:43:05Z</time>
      </trkpt>
      <trkpt lat="49.00662" lon="1.83262">
        <ele>129</ele>
        <time>2023-01-10T09:43:35Z</time>
      </trkpt>
      <trkpt lat="49.00683" lon="1.83231">
        <ele>132</ele>
        <time>2023-01-10T09:43:59Z</time>
      </trkpt>
      <trkpt lat="49.00709" lon="1.83215">
        <ele>136</ele>
        <time>2023-01-10T09:44:21Z</time>
      </trkpt>
      <trkpt lat="49.00713" lon="1.83204">
        <ele>137</ele>
        <time>2023-01-10T09:44:28Z</time>
      </trkpt>
      <trkpt lat="49.00713" lon="1.83161">
        <ele>141</ele>
        <time>2023-01-10T09:44:50Z</time>
      </trkpt>
      <trkpt lat="49.00725" lon="1.83061">
        <ele>144</ele>
        <time>2023-01-10T09:45:44Z</time>
      </trkpt>
      <trkpt lat="49.00731" lon="1.83031">
        <ele>144</ele>
        <time>2023-01-10T09:46:00Z</time>
      </trkpt>
      <trkpt lat="49.00743" lon="1.83006">
        <ele>145</ele>
        <time>2023-01-10T09:46:16Z</time>
      </trkpt>
      <trkpt lat="49.00762" lon="1.82933">
        <ele>147</ele>
        <time>2023-01-10T09:46:58Z</time>
      </trkpt>
      <trkpt lat="49.00759" lon="1.8286">
        <ele>148</ele>
        <time>2023-01-10T09:47:36Z</time>
      </trkpt>
      <trkpt lat="49.00762" lon="1.82846">
        <ele>148</ele>
        <time>2023-01-10T09:47:44Z</time>
      </trkpt>
      <trkpt lat="49.00768" lon="1.82842">
        <ele>149</ele>
        <time>2023-01-10T09:47:49Z</time>
      </trkpt>
      <trkpt lat="49.00829" lon="1.82884">
        <ele>155</ele>
        <time>2023-01-10T09:48:43Z</time>
      </trkpt>
      <trkpt lat="49.00906" lon="1.82961">
        <ele>159</ele>
        <time>2023-01-10T09:49:56Z</time>
      </trkpt>
      <trkpt lat="49.01003" lon="1.83022">
        <ele>165</ele>
        <time>2023-01-10T09:51:20Z</time>
      </trkpt>
      <trkpt lat="49.01029" lon="1.83052">
        <ele>167</ele>
        <time>2023-01-10T09:51:46Z</time>
      </trkpt>
      <trkpt lat="49.01079" lon="1.83089">
        <ele>169</ele>
        <time>2023-01-10T09:52:31Z</time>
      </trkpt>
      <trkpt lat="49.01199" lon="1.83128">
        <ele>178</ele>
        <time>2023-01-10T09:54:09Z</time>
      </trkpt>
      <trkpt lat="49.0123" lon="1.83113">
        <ele>181</ele>
        <time>2023-01-10T09:54:35Z</time>
      </trkpt>
      <trkpt lat="49.01257" lon="1.83088">
        <ele>181</ele>
        <time>2023-01-10T09:55:00Z</time>
      </trkpt>
      <trkpt lat="49.01309" lon="1.83067">
        <ele>173</ele>
        <time>2023-01-10T09:55:44Z</time>
      </trkpt>
      <trkpt lat="49.01365" lon="1.83027">
        <ele>167</ele>
        <time>2023-01-10T09:56:33Z</time>
      </trkpt>
      <trkpt lat="49.01401" lon="1.83007">
        <ele>163</ele>
        <time>2023-01-10T09:57:04Z</time>
      </trkpt>
      <trkpt lat="49.01432" lon="1.82981">
        <ele>162</ele>
        <time>2023-01-10T09:57:32Z</time>
      </trkpt>
      <trkpt lat="49.01481" lon="1.82952">
        <ele>164</ele>
        <time>2023-01-10T09:58:14Z</time>
      </trkpt>
      <trkpt lat="49.01579" lon="1.82857">
        <ele>158</ele>
        <time>2023-01-10T09:59:47Z</time>
      </trkpt>
      <trkpt lat="49.01616" lon="1.82813">
        <ele>158</ele>
        <time>2023-01-10T10:00:25Z</time>
      </trkpt>
      <trkpt lat="49.01622" lon="1.82795">
        <ele>159</ele>
        <time>2023-01-10T10:00:35Z</time>
      </trkpt>
      <trkpt lat="49.01624" lon="1.82764">
        <ele>160</ele>
        <time>2023-01-10T10:00:52Z</time>
      </trkpt>
      <trkpt lat="49.01635" lon="1.82732">
        <ele>162</ele>
        <time>2023-01-10T10:01:11Z</time>
      </trkpt>
      <trkpt lat="49.01643" lon="1.8272">
        <ele>162</ele>
        <time>2023-01-10T10:01:20Z</time>
      </trkpt>
      <trkpt lat="49.01665" lon="1.82706">
        <ele>161</ele>
        <time>2023-01-10T10:01:39Z</time>
      </trkpt>
      <trkpt lat="49.0172" lon="1.827">
        <ele>157</ele>
        <time>2023-01-10T10:02:23Z</time>
      </trkpt>
      <trkpt lat="49.01796" lon="1.82654">
        <ele>151</ele>
        <time>2023-01-10T10:03:28Z</time>
      </trkpt>
      <trkpt lat="49.01843" lon="1.8254">
        <ele>149</ele>
        <time>2023-01-10T10:04:39Z</time>
      </trkpt>
      <trkpt lat="49.01833" lon="1.82577">
        <ele>148</ele>
        <time>2023-01-10T10:05:00Z</time>
      </trkpt>
      <trkpt lat="49.01836" lon="1.82596">
        <ele>147</ele>
        <time>2023-01-10T10:05:10Z</time>
      </trkpt>
      <trkpt lat="49.01899" lon="1.82666">
        <ele>143</ele>
        <time>2023-01-10T10:06:13Z</time>
      </trkpt>
      <trkpt lat="49.01909" lon="1.82707">
        <ele>140</ele>
        <time>2023-01-10T10:06:36Z</time>
      </trkpt>
      <trkpt lat="49.01934" lon="1.82734">
        <ele>137</ele>
        <time>2023-01-10T10:07:00Z</time>
      </trkpt>
      <trkpt lat="49.01972" lon="1.82752">
        <ele>135</ele>
        <time>2023-01-10T10:07:32Z</time>
      </trkpt>
      <trkpt lat="49.02008" lon="1.82759">
        <ele>133</ele>
        <time>2023-01-10T10:08:01Z</time>
      </trkpt>
      <trkpt lat="49.02131" lon="1.82837">
        <ele>123</ele>
        <time>2023-01-10T10:09:48Z</time>
      </trkpt>
      <trkpt lat="49.02172" lon="1.82846">
        <ele>122</ele>
        <time>2023-01-10T10:10:21Z</time>
      </trkpt>
      <trkpt lat="49.02237" lon="1.82848">
        <ele>120</ele>
        <time>2023-01-10T10:11:13Z</time>
      </trkpt>
      <trkpt lat="49.02234" lon="1.82844">
        <ele>120</ele>
        <time>2023-01-10T10:11:16Z</time>
      </trkpt>
      <trkpt lat="49.02237" lon="1.82857">
        <ele>120</ele>
        <time>2023-01-10T10:11:23Z</time>
      </trkpt>
      <trkpt lat="49.02237" lon="1.82862">
        <ele>121</ele>
        <time>2023-01-10T10:11:26Z</time>
      </trkpt>
      <trkpt lat="49.02241" lon="1.83038">
        <ele>119</ele>
        <time>2023-01-10T10:12:59Z</time>
      </trkpt>
      <trkpt lat="49.02237" lon="1.83135">
        <ele>113</ele>
        <time>2023-01-10T10:13:50Z</time>
      </trkpt>
      <trkpt lat="49.02221" lon="1.83608">
        <ele>119</ele>
        <time>2023-01-10T10:17:58Z</time>
      </trkpt>
      <trkpt lat="49.0232" lon="1.83766">
        <ele>118</ele>
        <time>2023-01-10T10:19:53Z</time>
      </trkpt>
      <trkpt lat="49.02643" lon="1.83845">
        <ele>98</ele>
        <time>2023-01-10T10:24:15Z</time>
      </trkpt>
      <trkpt lat="49.02784" lon="1.83868">
        <ele>76</ele>
        <time>2023-01-10T10:26:08Z</time>
      </trkpt>
      <trkpt lat="49.02768" lon="1.84013">
        <ele>76</ele>
        <time>2023-01-10T10:27:26Z</time>
      </trkpt>
      <trkpt lat="49.02711" lon="1.84277">
        <ele>82</ele>
        <time>2023-01-10T10:29:52Z</time>
      </trkpt>
      <trkpt lat="49.02706" lon="1.84331">
        <ele>87</ele>
        <time>2023-01-10T10:30:20Z</time>
      </trkpt>
      <trkpt lat="49.02729" lon="1.8441">
        <ele>89</ele>
        <time>2023-01-10T10:31:06Z</time>
      </trkpt>
      <trkpt lat="49.02771" lon="1.84511">
        <ele>82</ele>
        <time>2023-01-10T10:32:08Z</time>
      </trkpt>
      <trkpt lat="49.02822" lon="1.84492">
        <ele>73</ele>
        <time>2023-01-10T10:32:50Z</time>
      </trkpt>
      <trkpt lat="49.02844" lon="1.84528">
        <ele>70</ele>
        <time>2023-01-10T10:33:16Z</time>
      </trkpt>
      <trkpt lat="49.02853" lon="1.8452">
        <ele>68</ele>
        <time>2023-01-10T10:33:25Z</time>
      </trkpt>
      <trkpt lat="49.02926" lon="1.84533">
        <ele>57</ele>
        <time>2023-01-10T10:34:23Z</time>
      </trkpt>
      <trkpt lat="49.02954" lon="1.84528">
        <ele>54</ele>
        <time>2023-01-10T10:34:46Z</time>
      </trkpt>
      <trkpt lat="49.02955" lon="1.84599">
        <ele>54</ele>
        <time>2023-01-10T10:35:23Z</time>
      </trkpt>
      <trkpt lat="49.02964" lon="1.84707">
        <ele>54</ele>
        <time>2023-01-10T10:36:20Z</time>
      </trkpt>
      <trkpt lat="49.02944" lon="1.84846">
        <ele>54</ele>
        <time>2023-01-10T10:37:35Z</time>
      </trkpt>
      <trkpt lat="49.02922" lon="1.84936">
        <ele>51</ele>
        <time>2023-01-10T10:38:26Z</time>
      </trkpt>
      <trkpt lat="49.02909" lon="1.85007">
        <ele>50</ele>
        <time>2023-01-10T10:39:04Z</time>
      </trkpt>
      <trkpt lat="49.02892" lon="1.85084">
        <ele>53</ele>
        <time>2023-01-10T10:39:47Z</time>
      </trkpt>
      <trkpt lat="49.0284" lon="1.85179">
        <ele>53</ele>
        <time>2023-01-10T10:40:52Z</time>
      </trkpt>
      <trkpt lat="49.02844" lon="1.85237">
        <ele>51</ele>
        <time>2023-01-10T10:41:22Z</time>
      </trkpt>
      <trkpt lat="49.02888" lon="1.85303">
        <ele>47</ele>
        <time>2023-01-10T10:42:12Z</time>
      </trkpt>
      <trkpt lat="49.02899" lon="1.85352">
        <ele>47</ele>
        <time>2023-01-10T10:42:39Z</time>
      </trkpt>
      <trkpt lat="49.02929" lon="1.8534">
        <ele>47</ele>
        <time>2023-01-10T10:43:04Z</time>
      </trkpt>
      <trkpt lat="49.02926" lon="1.85526">
        <ele>48</ele>
        <time>2023-01-10T10:44:42Z</time>
      </trkpt>
      <trkpt lat="49.02931" lon="1.86009">
        <ele>43</ele>
        <time>2023-01-10T10:48:55Z</time>
      </trkpt>
      <trkpt lat="49.02969" lon="1.86161">
        <ele>42</ele>
        <time>2023-01-10T10:50:21Z</time>
      </trkpt>
      <trkpt lat="49.03014" lon="1.86264">
        <ele>40</ele>
        <time>2023-01-10T10:51:26Z</time>
      </trkpt>
      <trkpt lat="49.03044" lon="1.86382">
        <ele>41</ele>
        <time>2023-01-10T10:52:32Z</time>
      </trkpt>
      <trkpt lat="49.03048" lon="1.86567">
        <ele>40</ele>
        <time>2023-01-10T10:54:09Z</time>
      </trkpt>
      <trkpt lat="49.03082" lon="1.86719">
        <ele>43</ele>
        <time>2023-01-10T10:55:34Z</time>
      </trkpt>
      <trkpt lat="49.03145" lon="1.86638">
        <ele>47</ele>
        <time>2023-01-10T10:56:39Z</time>
      </trkpt>
      <trkpt lat="49.03176" lon="1.86515">
        <ele>56</ele>
        <time>2023-01-10T10:57:49Z</time>
      </trkpt>
      <trkpt lat="49.03209" lon="1.86466">
        <ele>59</ele>
        <time>2023-01-10T10:58:26Z</time>
      </trkpt>
      <trkpt lat="49.03214" lon="1.86367">
        <ele>62</ele>
        <time>2023-01-10T10:59:18Z</time>
      </trkpt>
      <trkpt lat="49.0321" lon="1.86305">
        <ele>64</ele>
        <time>2023-01-10T10:59:50Z</time>
      </trkpt>
      <trkpt lat="49.03278" lon="1.86419">
        <ele>58</ele>
        <time>2023-01-10T11:01:11Z</time>
      </trkpt>
      <trkpt lat="49.03314" lon="1.86462">
        <ele>53</ele>
        <time>2023-01-10T11:01:48Z</time>
      </trkpt>
      <trkpt lat="49.03404" lon="1.86522">
        <ele>40</ele>
        <time>2023-01-10T11:03:07Z</time>
      </trkpt>
      <trkpt lat="49.03379" lon="1.86591">
        <ele>41</ele>
        <time>2023-01-10T11:03:48Z</time>
      </trkpt>
      <trkpt lat="49.03323" lon="1.86646">
        <ele>41</ele>
        <time>2023-01-10T11:04:41Z</time>
      </trkpt>
      <trkpt lat="49.03269" lon="1.86685">
        <ele>41</ele>
        <time>2023-01-10T11:05:29Z</time>
      </trkpt>
      <trkpt lat="49.03214" lon="1.86758">
        <ele>40</ele>
        <time>2023-01-10T11:06:27Z</time>
      </trkpt>
      <trkpt lat="49.03248" lon="1.86745">
        <ele>38</ele>
        <time>2023-01-10T11:06:56Z</time>
      </trkpt>
      <trkpt lat="49.03216" lon="1.86887">
        <ele>46</ele>
        <time>2023-01-10T11:08:14Z</time>
      </trkpt>
      <trkpt lat="49.0321" lon="1.86968">
        <ele>50</ele>
        <time>2023-01-10T11:08:57Z</time>
      </trkpt>
      <trkpt lat="49.03192" lon="1.87039">
        <ele>50</ele>
        <time>2023-01-10T11:09:37Z</time>
      </trkpt>
      <trkpt lat="49.03192" lon="1.87125">
        <ele>53</ele>
        <time>2023-01-10T11:10:22Z</time>
      </trkpt>
      <trkpt lat="49.03206" lon="1.87211">
        <ele>60</ele>
        <time>2023-01-10T11:11:09Z</time>
      </trkpt>
      <trkpt lat="49.03216" lon="1.87297">
        <ele>64</ele>
        <time>2023-01-10T11:11:55Z</time>
      </trkpt>
      <trkpt lat="49.03244" lon="1.87382">
        <ele>67</ele>
        <time>2023-01-10T11:12:45Z</time>
      </trkpt>
      <trkpt lat="49.03241" lon="1.87492">
        <ele>74</ele>
        <time>2023-01-10T11:13:42Z</time>
      </trkpt>
      <trkpt lat="49.03215" lon="1.87633">
        <ele>85</ele>
        <time>2023-01-10T11:14:59Z</time>
      </trkpt>
      <trkpt lat="49.03208" lon="1.87644">
        <ele>86</ele>
        <time>2023-01-10T11:15:07Z</time>
      </trkpt>
      <trkpt lat="49.03209" lon="1.87656">
        <ele>87</ele>
        <time>2023-01-10T11:15:14Z</time>
      </trkpt>
      <trkpt lat="49.0321" lon="1.87668">
        <ele>88</ele>
        <time>2023-01-10T11:15:20Z</time>
      </trkpt>
      <trkpt lat="49.03206" lon="1.87672">
        <ele>88</ele>
        <time>2023-01-10T11:15:24Z</time>
      </trkpt>
      <trkpt lat="49.03196" lon="1.87669">
        <ele>88</ele>
        <time>2023-01-10T11:15:32Z</time>
      </trkpt>
      <trkpt lat="49.03192" lon="1.87678">
        <ele>89</ele>
        <time>2023-01-10T11:15:38Z</time>
      </trkpt>
      <trkpt lat="49.03199" lon="1.87699">
        <ele>91</ele>
        <time>2023-01-10T11:15:50Z</time>
      </trkpt>
      <trkpt lat="49.03202" lon="1.87705">
        <ele>91</ele>
        <time>2023-01-10T11:15:54Z</time>
      </trkpt>
      <trkpt lat="49.03203" lon="1.87713">
        <ele>92</ele>
        <time>2023-01-10T11:15:58Z</time>
      </trkpt>
      <trkpt lat="49.03198" lon="1.87719">
        <ele>92</ele>
        <time>2023-01-10T11:16:03Z</time>
      </trkpt>
      <trkpt lat="49.03191" lon="1.87722">
        <ele>93</ele>
        <time>2023-01-10T11:16:09Z</time>
      </trkpt>
      <trkpt lat="49.03183" lon="1.87725">
        <ele>93</ele>
        <time>2023-01-10T11:16:16Z</time>
      </trkpt>
      <trkpt lat="49.03167" lon="1.8774">
        <ele>95</ele>
        <time>2023-01-10T11:16:31Z</time>
      </trkpt>
      <trkpt lat="49.03071" lon="1.87667">
        <ele>96</ele>
        <time>2023-01-10T11:17:57Z</time>
      </trkpt>
      <trkpt lat="49.02975" lon="1.8764">
        <ele>88</ele>
        <time>2023-01-10T11:19:15Z</time>
      </trkpt>
      <trkpt lat="49.02877" lon="1.87642">
        <ele>77</ele>
        <time>2023-01-10T11:20:33Z</time>
      </trkpt>
      <trkpt lat="49.0284" lon="1.87616">
        <ele>70</ele>
        <time>2023-01-10T11:21:06Z</time>
      </trkpt>
      <trkpt lat="49.02788" lon="1.87585">
        <ele>63</ele>
        <time>2023-01-10T11:21:51Z</time>
      </trkpt>
      <trkpt lat="49.02732" lon="1.8759">
        <ele>58</ele>
        <time>2023-01-10T11:22:36Z</time>
      </trkpt>
      <trkpt lat="49.02695" lon="1.87629">
        <ele>56</ele>
        <time>2023-01-10T11:23:12Z</time>
      </trkpt>
      <trkpt lat="49.02656" lon="1.87616">
        <ele>50</ele>
        <time>2023-01-10T11:23:44Z</time>
      </trkpt>
      <trkpt lat="49.02621" lon="1.87608">
        <ele>45</ele>
        <time>2023-01-10T11:24:12Z</time>
      </trkpt>
      <trkpt lat="49.02539" lon="1.87687">
        <ele>41</ele>
        <time>2023-01-10T11:25:30Z</time>
      </trkpt>
      <trkpt lat="49.02574" lon="1.87519">
        <ele>34</ele>
        <time>2023-01-10T11:27:02Z</time>
      </trkpt>
      <trkpt lat="49.02543" lon="1.87511">
        <ele>32</ele>
        <time>2023-01-10T11:27:27Z</time>
      </trkpt>
      <trkpt lat="49.02477" lon="1.87494">
        <ele>32</ele>
        <time>2023-01-10T11:28:21Z</time>
      </trkpt>
      <trkpt lat="49.024" lon="1.87404">
        <ele>36</ele>
        <time>2023-01-10T11:29:39Z</time>
      </trkpt>
      <trkpt lat="49.02394" lon="1.87458">
        <ele>35</ele>
        <time>2023-01-10T11:30:07Z</time>
      </trkpt>
      <trkpt lat="49.02322" lon="1.87432">
        <ele>41</ele>
        <time>2023-01-10T11:31:07Z</time>
      </trkpt>
      <trkpt lat="49.02294" lon="1.87416">
        <ele>45</ele>
        <time>2023-01-10T11:31:30Z</time>
      </trkpt>
      <trkpt lat="49.02261" lon="1.87394">
        <ele>50</ele>
        <time>2023-01-10T11:31:59Z</time>
      </trkpt>
      <trkpt lat="49.02248" lon="1.87379">
        <ele>52</ele>
        <time>2023-01-10T11:32:12Z</time>
      </trkpt>
      <trkpt lat="49.02207" lon="1.87285">
        <ele>57</ele>
        <time>2023-01-10T11:33:12Z</time>
      </trkpt>
      <trkpt lat="49.02171" lon="1.87263">
        <ele>62</ele>
        <time>2023-01-10T11:33:43Z</time>
      </trkpt>
      <trkpt lat="49.02149" lon="1.87314">
        <ele>61</ele>
        <time>2023-01-10T11:34:15Z</time>
      </trkpt>
      <trkpt lat="49.02039" lon="1.87487">
        <ele>54</ele>
        <time>2023-01-10T11:36:21Z</time>
      </trkpt>
      <trkpt lat="49.02032" lon="1.87519">
        <ele>54</ele>
        <time>2023-01-10T11:36:39Z</time>
      </trkpt>
      <trkpt lat="49.02057" lon="1.87569">
        <ele>51</ele>
        <time>2023-01-10T11:37:12Z</time>
      </trkpt>
      <trkpt lat="49.02048" lon="1.87631">
        <ele>54</ele>
        <time>2023-01-10T11:37:45Z</time>
      </trkpt>
      <trkpt lat="49.02001" lon="1.87663">
        <ele>62</ele>
        <time>2023-01-10T11:38:27Z</time>
      </trkpt>
      <trkpt lat="49.01948" lon="1.87754">
        <ele>72</ele>
        <time>2023-01-10T11:39:30Z</time>
      </trkpt>
      <trkpt lat="49.0193" lon="1.87757">
        <ele>75</ele>
        <time>2023-01-10T11:39:45Z</time>
      </trkpt>
      <trkpt lat="49.01835" lon="1.87657">
        <ele>82</ele>
        <time>2023-01-10T11:41:17Z</time>
      </trkpt>
      <trkpt lat="49.01769" lon="1.87581">
        <ele>89</ele>
        <time>2023-01-10T11:42:24Z</time>
      </trkpt>
      <trkpt lat="49.01735" lon="1.87558">
        <ele>93</ele>
        <time>2023-01-10T11:42:53Z</time>
      </trkpt>
      <trkpt lat="49.01716" lon="1.8756">
        <ele>94</ele>
        <time>2023-01-10T11:43:09Z</time>
      </trkpt>
      <trkpt lat="49.01529" lon="1.87778">
        <ele>101</ele>
        <time>2023-01-10T11:46:17Z</time>
      </trkpt>
      <trkpt lat="49.01509" lon="1.87766">
        <ele>102</ele>
        <time>2023-01-10T11:46:34Z</time>
      </trkpt>
      <trkpt lat="49.01505" lon="1.87467">
        <ele>103</ele>
        <time>2023-01-10T11:49:11Z</time>
      </trkpt>
      <trkpt lat="49.01402" lon="1.87467">
        <ele>105</ele>
        <time>2023-01-10T11:50:34Z</time>
      </trkpt>
      <trkpt lat="49.01282" lon="1.87482">
        <ele>108</ele>
        <time>2023-01-10T11:52:10Z</time>
      </trkpt>
      <trkpt lat="49.01278" lon="1.87284">
        <ele>112</ele>
        <time>2023-01-10T11:53:54Z</time>
      </trkpt>
      <trkpt lat="49.01297" lon="1.86981">
        <ele>117</ele>
        <time>2023-01-10T11:56:34Z</time>
      </trkpt>
      <trkpt lat="49.01365" lon="1.86569">
        <ele>120</ele>
        <time>2023-01-10T12:00:17Z</time>
      </trkpt>
      <trkpt lat="49.01379" lon="1.86418">
        <ele>120</ele>
        <time>2023-01-10T12:01:37Z</time>
      </trkpt>
      <trkpt lat="49.01398" lon="1.86147">
        <ele>115</ele>
        <time>2023-01-10T12:04:00Z</time>
      </trkpt>
      <trkpt lat="49.01386" lon="1.85952">
        <ele>119</ele>
        <time>2023-01-10T12:05:43Z</time>
      </trkpt>
      <trkpt lat="49.01394" lon="1.85858">
        <ele>119</ele>
        <time>2023-01-10T12:06:33Z</time>
      </trkpt>
      <trkpt lat="49.01334" lon="1.85904">
        <ele>120</ele>
        <time>2023-01-10T12:07:27Z</time>
      </trkpt>
      <trkpt lat="49.01233" lon="1.86061">
        <ele>132</ele>
        <time>2023-01-10T12:09:22Z</time>
      </trkpt>
      <trkpt lat="49.01213" lon="1.86091">
        <ele>134</ele>
        <time>2023-01-10T12:09:45Z</time>
      </trkpt>
      <trkpt lat="49.01164" lon="1.86134">
        <ele>138</ele>
        <time>2023-01-10T12:10:30Z</time>
      </trkpt>
      <trkpt lat="49.0112" lon="1.86202">
        <ele>143</ele>
        <time>2023-01-10T12:11:20Z</time>
      </trkpt>
      <trkpt lat="49.01047" lon="1.86103">
        <ele>144</ele>
        <time>2023-01-10T12:12:38Z</time>
      </trkpt>
      <trkpt lat="49.01039" lon="1.86003">
        <ele>145</ele>
        <time>2023-01-10T12:13:31Z</time>
      </trkpt>
      <trkpt lat="49.01016" lon="1.85985">
        <ele>145</ele>
        <time>2023-01-10T12:13:52Z</time>
      </trkpt>
      <trkpt lat="49.01008" lon="1.85925">
        <ele>145</ele>
        <time>2023-01-10T12:14:24Z</time>
      </trkpt>
      <trkpt lat="49.00952" lon="1.859">
        <ele>146</ele>
        <time>2023-01-10T12:15:11Z</time>
      </trkpt>
      <trkpt lat="49.00943" lon="1.85792">
        <ele>147</ele>
        <time>2023-01-10T12:16:08Z</time>
      </trkpt>
      <trkpt lat="49.00912" lon="1.85664">
        <ele>153</ele>
        <time>2023-01-10T12:17:20Z</time>
      </trkpt>
      <trkpt lat="49.00891" lon="1.85533">
        <ele>154</ele>
        <time>2023-01-10T12:18:31Z</time>
      </trkpt>
      <trkpt lat="49.00864" lon="1.85451">
        <ele>152</ele>
        <time>2023-01-10T12:19:19Z</time>
      </trkpt>
      <trkpt lat="49.0085" lon="1.85273">
        <ele>155</ele>
        <time>2023-01-10T12:20:53Z</time>
      </trkpt>
      <trkpt lat="49.00801" lon="1.85301">
        <ele>158</ele>
        <time>2023-01-10T12:21:35Z</time>
      </trkpt>
      <trkpt lat="49.00762" lon="1.85331">
        <ele>160</ele>
        <time>2023-01-10T12:22:10Z</time>
      </trkpt>
      <trkpt lat="49.00733" lon="1.85359">
        <ele>158</ele>
        <time>2023-01-10T12:22:37Z</time>
      </trkpt>
      <trkpt lat="49.00661" lon="1.85316">
        <ele>165</ele>
        <time>2023-01-10T12:23:39Z</time>
      </trkpt>
      <trkpt lat="49.0058" lon="1.85283">
        <ele>165</ele>
        <time>2023-01-10T12:24:46Z</time>
      </trkpt>
      <trkpt lat="49.00498" lon="1.85283">
        <ele>165</ele>
        <time>2023-01-10T12:25:52Z</time>
      </trkpt>
      <trkpt lat="49.00477" lon="1.85252">
        <ele>163</ele>
        <time>2023-01-10T12:26:15Z</time>
      </trkpt>
      <trkpt lat="49.0044" lon="1.85268">
        <ele>161</ele>
        <time>2023-01-10T12:26:46Z</time>
      </trkpt>
      <trkpt lat="49.00392" lon="1.8527">
        <ele>161</ele>
        <time>2023-01-10T12:27:25Z</time>
      </trkpt>
      <trkpt lat="49.00328" lon="1.85268">
        <ele>162</ele>
        <time>2023-01-10T12:28:16Z</time>
      </trkpt>
      <trkpt lat="49.00275" lon="1.85265">
        <ele>154</ele>
        <time>2023-01-10T12:28:58Z</time>
      </trkpt>
      <trkpt lat="49.00255" lon="1.85236">
        <ele>150</ele>
        <time>2023-01-10T12:29:20Z</time>
      </trkpt>
      <trkpt lat="49.00236" lon="1.85215">
        <ele>147</ele>
        <time>2023-01-10T12:29:39Z</time>
      </trkpt>
      <trkpt lat="49.00212" lon="1.85157">
        <ele>141</ele>
        <time>2023-01-10T12:30:15Z</time>
      </trkpt>
      <trkpt lat="49.00173" lon="1.8511">
        <ele>133</ele>
        <time>2023-01-10T12:30:55Z</time>
      </trkpt>
      <trkpt lat="49.00158" lon="1.85087">
        <ele>130</ele>
        <time>2023-01-10T12:31:12Z</time>
      </trkpt>
      <trkpt lat="49.0013" lon="1.85069">
        <ele>126</ele>
        <time>2023-01-10T12:31:36Z</time>
      </trkpt>
      <trkpt lat="49.00103" lon="1.85053">
        <ele>123</ele>
        <time>2023-01-10T12:32:00Z</time>
      </trkpt>
      <trkpt lat="49.0009" lon="1.85054">
        <ele>121</ele>
        <time>2023-01-10T12:32:10Z</time>
      </trkpt>
      <trkpt lat="49.00071" lon="1.85098">
        <ele>124</ele>
        <time>2023-01-10T12:32:38Z</time>
      </trkpt>
      <trkpt lat="49.00062" lon="1.85109">
        <ele>125</ele>
        <time>2023-01-10T12:32:47Z</time>
      </trkpt>
      <trkpt lat="49.00045" lon="1.85078">
        <ele>120</ele>
        <time>2023-01-10T12:33:08Z</time>
      </trkpt>
      <trkpt lat="49.00015" lon="1.85041">
        <ele>115</ele>
        <time>2023-01-10T12:33:39Z</time>
      </trkpt>
      <trkpt lat="48.99988" lon="1.85015">
        <ele>112</ele>
        <time>2023-01-10T12:34:05Z</time>
      </trkpt>
      <trkpt lat="48.99951" lon="1.84995">
        <ele>110</ele>
        <time>2023-01-10T12:34:36Z</time>
      </trkpt>
      <trkpt lat="48.99922" lon="1.84984">
        <ele>109</ele>
        <time>2023-01-10T12:35:00Z</time>
      </trkpt>
      <trkpt lat="48.99902" lon="1.8496">
        <ele>108</ele>
        <time>2023-01-10T12:35:20Z</time>
      </trkpt>
      <trkpt lat="48.99865" lon="1.84912">
        <ele>106</ele>
        <time>2023-01-10T12:35:59Z</time>
      </trkpt>
      <trkpt lat="48.99799" lon="1.84838">
        <ele>101</ele>
        <time>2023-01-10T12:37:05Z</time>
      </trkpt>
      <trkpt lat="48.99706" lon="1.8477">
        <ele>94</ele>
        <time>2023-01-10T12:38:28Z</time>
      </trkpt>
      <trkpt lat="48.99629" lon="1.84727">
        <ele>86</ele>
        <time>2023-01-10T12:39:33Z</time>
      </trkpt>
      <trkpt lat="48.99585" lon="1.84696">
        <ele>80</ele>
        <time>2023-01-10T12:40:12Z</time>
      </trkpt>
      <trkpt lat="48.9956" lon="1.84672">
        <ele>76</ele>
        <time>2023-01-10T12:40:36Z</time>
      </trkpt>
      <trkpt lat="48.99538" lon="1.84731">
        <ele>80</ele>
        <time>2023-01-10T12:41:11Z</time>
      </trkpt>
      <trkpt lat="48.99469" lon="1.84806">
        <ele>81</ele>
        <time>2023-01-10T12:42:19Z</time>
      </trkpt>
      <trkpt lat="48.99442" lon="1.84727">
        <ele>69</ele>
        <time>2023-01-10T12:43:06Z</time>
      </trkpt>
      <trkpt lat="48.99424" lon="1.84655">
        <ele>62</ele>
        <time>2023-01-10T12:43:46Z</time>
      </trkpt>
      <trkpt lat="48.99408" lon="1.84658">
        <ele>60</ele>
        <time>2023-01-10T12:43:59Z</time>
      </trkpt>
      <trkpt lat="48.99374" lon="1.84557">
        <ele>63</ele>
        <time>2023-01-10T12:44:59Z</time>
      </trkpt>
      <trkpt lat="48.9931" lon="1.84612">
        <ele>54</ele>
        <time>2023-01-10T12:45:58Z</time>
      </trkpt>
      <trkpt lat="48.99248" lon="1.84686">
        <ele>49</ele>
        <time>2023-01-10T12:47:01Z</time>
      </trkpt>
      <trkpt lat="48.99238" lon="1.84634">
        <ele>50</ele>
        <time>2023-01-10T12:47:29Z</time>
      </trkpt>
      <trkpt lat="48.99248" lon="1.84472">
        <ele>55</ele>
        <time>2023-01-10T12:48:55Z</time>
      </trkpt>
    </trkseg>
  </trk>
</gpx>